Time;durP1;ratioP1;P1;durP2;ratioP2;P2;SDS_P1;SDS_P2;PMS_P1;PMS_P2;Temp;Humidity;BMP_temperature;BMP_pressure;BME280_temperature;BME280_humidity;BME280_pressure;Samples;Min_cycle;Max_cycle;Signal;HPM_P1;HPM_P2
2022/07/07 00:01:41;;;;;;;1.33;1.02;;;;;;;17.89;49.63;97810.91;5017667;27;20781;-75
2022/07/07 00:04:08;;;;;;;1.65;1.10;;;;;;;17.90;50.06;97807.22;5044280;27;20215;-75
2022/07/07 00:06:33;;;;;;;0.80;0.70;;;;;;;17.96;49.37;97803.50;5028254;27;20288;-74
2022/07/07 00:08:59;;;;;;;1.42;0.80;;;;;;;18.00;49.83;97790.53;5002074;27;20678;-75
2022/07/07 00:11:24;;;;;;;0.88;0.88;;;;;;;17.90;49.92;97783.50;5046335;27;20322;-75
2022/07/07 00:13:50;;;;;;;1.00;0.90;;;;;;;17.90;49.76;97786.13;5023275;28;20554;-75
2022/07/07 00:16:16;;;;;;;1.73;0.80;;;;;;;17.92;49.75;97781.38;5044208;27;20240;-75
2022/07/07 00:18:41;;;;;;;0.95;0.95;;;;;;;17.99;49.50;97778.41;5044118;27;20240;-74
2022/07/07 00:21:07;;;;;;;1.55;0.90;;;;;;;17.94;49.57;97784.50;5043506;27;20187;-75
2022/07/07 00:23:33;;;;;;;1.13;1.00;;;;;;;17.83;49.61;97777.75;5009933;27;20215;-75
2022/07/07 00:25:58;;;;;;;2.00;1.00;;;;;;;17.73;49.76;97786.50;5040187;27;20312;-75
2022/07/07 00:28:24;;;;;;;1.17;0.98;;;;;;;17.66;50.25;97783.41;5010521;28;20217;-75
2022/07/07 00:30:49;;;;;;;1.90;1.20;;;;;;;17.68;50.46;97789.19;5026739;28;20692;-75
2022/07/07 00:33:15;;;;;;;1.20;0.85;;;;;;;17.65;50.74;97790.53;5042257;28;20281;-75
2022/07/07 00:35:40;;;;;;;1.05;0.85;;;;;;;17.66;50.67;97789.44;5048054;27;20234;-75
2022/07/07 00:38:06;;;;;;;0.80;0.75;;;;;;;17.64;50.79;97788.94;5035608;28;20629;-75
2022/07/07 00:40:32;;;;;;;1.20;0.80;;;;;;;17.63;50.51;97787.34;5014745;27;20173;-75
2022/07/07 00:42:57;;;;;;;2.05;0.90;;;;;;;17.62;50.48;97790.28;5028706;27;20206;-75
2022/07/07 00:45:24;;;;;;;1.88;0.90;;;;;;;17.60;50.46;97787.94;5023619;28;20203;-74
2022/07/07 00:47:49;;;;;;;1.85;1.02;;;;;;;17.55;50.83;97782.69;5026880;28;20605;-75
2022/07/07 00:50:15;;;;;;;0.95;0.90;;;;;;;17.55;50.90;97780.06;5009931;28;20149;-75
2022/07/07 00:52:40;;;;;;;1.00;0.90;;;;;;;17.47;51.38;97783.28;5024295;28;20197;-75
2022/07/07 00:55:08;;;;;;;0.98;0.75;;;;;;;17.46;51.31;97784.31;5043893;28;20275;-75
2022/07/07 00:57:33;;;;;;;1.33;0.82;;;;;;;17.40;51.41;97789.63;5026446;28;20703;-75
2022/07/07 01:00:02;;;;;;;1.63;0.80;;;;;;;17.40;50.85;97786.22;5034508;27;20334;-75
2022/07/07 01:02:29;;;;;;;1.75;0.98;;;;;;;17.55;50.48;97780.84;5048132;27;20247;-75
2022/07/07 01:04:55;;;;;;;2.72;0.90;;;;;;;17.45;50.93;97777.50;5024264;27;20188;-75
2022/07/07 01:07:21;;;;;;;2.65;0.85;;;;;;;17.39;51.15;97776.72;5049231;27;20735;-75
2022/07/07 01:09:46;;;;;;;0.80;0.80;;;;;;;17.40;51.06;97767.78;5046418;27;20170;-75
2022/07/07 01:12:11;;;;;;;2.00;1.08;;;;;;;17.32;51.21;97758.63;5028422;27;20198;-75
2022/07/07 01:14:39;;;;;;;2.35;0.90;;;;;;;17.22;51.00;97750.78;5006304;27;20669;-75
2022/07/07 01:17:04;;;;;;;2.33;0.80;;;;;;;17.17;50.82;97756.06;5044652;27;20179;-75
2022/07/07 01:19:30;;;;;;;1.52;0.90;;;;;;;17.10;51.21;97753.78;5030449;27;20202;-75
2022/07/07 01:22:00;;;;;;;1.23;0.70;;;;;;;17.08;51.05;97762.97;5040411;27;20632;-75
2022/07/07 01:24:27;;;;;;;2.45;1.25;;;;;;;17.11;51.26;97757.97;5017660;27;20675;-75
2022/07/07 01:27:05;;;;;;;0.98;0.88;;;;;;;16.84;52.50;97755.72;5030508;27;20301;-75
2022/07/07 01:29:35;;;;;;;1.15;1.05;;;;;;;16.76;52.36;97759.69;5021715;27;20164;-75
2022/07/07 01:32:01;;;;;;;2.88;1.08;;;;;;;16.84;52.25;97761.81;5030657;27;20313;-75
2022/07/07 01:34:27;;;;;;;1.00;0.90;;;;;;;16.92;52.19;97752.53;5026895;27;20228;-75
2022/07/07 01:36:52;;;;;;;1.65;1.05;;;;;;;16.84;52.45;97753.09;5036082;27;20270;-75
2022/07/07 01:39:17;;;;;;;0.98;0.80;;;;;;;16.82;52.03;97752.56;5039821;27;20199;-75
2022/07/07 01:41:43;;;;;;;1.92;1.02;;;;;;;16.73;52.14;97747.09;5049382;27;20243;-75
2022/07/07 01:44:08;;;;;;;1.05;0.73;;;;;;;16.73;52.26;97739.19;5014949;27;20623;-75
2022/07/07 01:46:33;;;;;;;0.98;0.93;;;;;;;16.73;52.11;97736.56;5026575;27;20257;-75
2022/07/07 01:48:59;;;;;;;0.90;0.80;;;;;;;16.57;52.63;97741.09;5046568;27;20203;-75
2022/07/07 01:51:24;;;;;;;1.38;0.88;;;;;;;16.50;52.67;97731.91;5039590;27;20263;-75
2022/07/07 01:53:49;;;;;;;1.30;0.90;;;;;;;16.56;52.58;97729.00;5020219;27;20188;-75
2022/07/07 01:56:15;;;;;;;1.02;0.80;;;;;;;16.61;52.67;97730.84;5025479;27;20747;-75
2022/07/07 01:58:40;;;;;;;1.67;1.42;;;;;;;16.55;52.88;97732.69;5030016;27;20276;-75
2022/07/07 02:01:06;;;;;;;1.00;1.00;;;;;;;16.61;52.57;97736.88;5022724;28;20129;-75
2022/07/07 02:03:31;;;;;;;1.10;1.00;;;;;;;16.69;52.46;97732.09;5030265;27;20223;-74
2022/07/07 02:05:57;;;;;;;1.00;0.80;;;;;;;16.67;52.65;97735.00;5025472;27;20264;-75
2022/07/07 02:08:22;;;;;;;1.35;1.20;;;;;;;16.67;52.71;97737.63;5029287;27;20184;-75
2022/07/07 02:13:32;;;;;;;1.02;0.80;;;;;;;16.80;52.79;97738.91;5038939;27;20688;-75
2022/07/07 02:15:57;;;;;;;1.25;1.02;;;;;;;16.89;52.66;97737.28;5022916;27;20352;-75
2022/07/07 02:18:22;;;;;;;1.10;1.00;;;;;;;16.96;52.88;97742.25;5022913;27;20693;-75
2022/07/07 02:20:48;;;;;;;1.77;0.90;;;;;;;17.01;52.59;97737.75;5045956;27;20183;-74
2022/07/07 02:23:13;;;;;;;1.50;1.23;;;;;;;17.06;52.42;97741.44;5029350;27;20633;-75
2022/07/07 02:25:39;;;;;;;0.93;0.90;;;;;;;17.09;52.05;97738.25;5016214;27;20255;-75
2022/07/07 02:28:04;;;;;;;1.17;1.00;;;;;;;17.19;51.53;97733.72;5029584;27;20207;-75
2022/07/07 02:30:29;;;;;;;1.35;0.80;;;;;;;17.21;51.74;97728.94;5048346;27;20273;-75
2022/07/07 02:32:55;;;;;;;2.10;0.90;;;;;;;17.26;51.41;97733.41;5048261;27;20230;-75
2022/07/07 02:35:20;;;;;;;1.73;1.00;;;;;;;17.28;51.60;97725.25;5045420;27;20306;-75
2022/07/07 02:37:46;;;;;;;1.40;0.90;;;;;;;17.34;51.91;97727.56;5046081;27;20191;-75
2022/07/07 02:40:11;;;;;;;2.85;0.90;;;;;;;17.35;51.44;97720.44;5047629;27;20269;-74
2022/07/07 02:42:37;;;;;;;2.20;0.80;;;;;;;17.38;51.43;97712.78;5043474;27;20274;-74
2022/07/07 02:45:02;;;;;;;1.63;0.95;;;;;;;17.36;51.31;97714.91;5019644;27;20297;-75
2022/07/07 02:47:28;;;;;;;1.33;0.82;;;;;;;17.31;51.10;97709.69;5045474;27;20160;-75
2022/07/07 02:49:53;;;;;;;2.25;1.38;;;;;;;17.28;50.97;97701.56;5028359;27;20213;-75
2022/07/07 02:52:18;;;;;;;1.77;1.10;;;;;;;17.25;50.77;97708.13;5045022;27;20688;-75
2022/07/07 02:54:44;;;;;;;1.27;1.02;;;;;;;17.22;51.00;97685.81;5043259;27;20226;-75
2022/07/07 02:57:09;;;;;;;2.33;0.90;;;;;;;17.22;50.75;97693.69;5045666;27;20606;-75
2022/07/07 02:59:36;;;;;;;1.88;0.98;;;;;;;17.14;51.13;97701.38;5047126;27;20721;-75
2022/07/07 03:02:02;;;;;;;1.02;0.90;;;;;;;17.04;51.55;97710.91;5045637;27;20165;-74
2022/07/07 03:04:27;;;;;;;1.20;1.10;;;;;;;16.93;51.71;97712.03;5045495;27;20649;-75
2022/07/07 03:06:52;;;;;;;3.22;1.10;;;;;;;16.82;51.97;97711.25;5046720;27;20204;-75
2022/07/07 03:09:18;;;;;;;1.48;1.05;;;;;;;16.66;52.69;97713.19;5019856;27;20709;-75
2022/07/07 03:11:43;;;;;;;1.30;0.95;;;;;;;16.57;53.02;97714.00;5028460;27;20193;-75
2022/07/07 03:14:08;;;;;;;1.65;0.95;;;;;;;16.58;52.94;97715.59;5042217;27;20248;-75
2022/07/07 03:16:34;;;;;;;1.17;1.02;;;;;;;16.53;53.33;97713.75;5038956;27;20205;-75
2022/07/07 03:18:59;;;;;;;2.35;1.20;;;;;;;16.43;53.29;97717.25;5027898;27;20204;-75
2022/07/07 03:21:24;;;;;;;3.08;1.00;;;;;;;16.42;53.27;97715.66;5041396;27;20200;-75
2022/07/07 03:23:50;;;;;;;0.90;0.90;;;;;;;16.42;53.16;97712.25;5027229;27;20202;-75
2022/07/07 03:26:15;;;;;;;1.92;1.00;;;;;;;16.40;53.35;97714.34;5037286;27;20283;-74
2022/07/07 03:28:41;;;;;;;1.50;1.08;;;;;;;16.36;53.73;97708.06;5022854;28;20197;-75
2022/07/07 03:31:06;;;;;;;1.95;1.20;;;;;;;16.37;53.86;97701.75;5040599;27;20358;-75
2022/07/07 03:33:31;;;;;;;1.27;1.17;;;;;;;16.35;53.64;97701.22;5027936;27;20183;-75
2022/07/07 03:35:57;;;;;;;1.90;1.05;;;;;;;16.34;53.56;97710.94;5016715;27;20312;-75
2022/07/07 03:38:22;;;;;;;1.25;1.15;;;;;;;16.29;53.85;97703.84;5041340;27;20357;-75
2022/07/07 03:40:48;;;;;;;2.67;1.13;;;;;;;16.28;53.84;97702.31;5036455;27;20198;-75
2022/07/07 03:43:13;;;;;;;1.30;1.20;;;;;;;16.24;53.76;97696.00;5042407;27;20148;-75
2022/07/07 03:45:38;;;;;;;2.70;1.13;;;;;;;16.22;54.02;97698.09;5033841;27;20187;-77
2022/07/07 03:48:04;;;;;;;2.92;1.25;;;;;;;16.19;54.17;97700.50;5028441;27;20210;-75
2022/07/07 03:50:29;;;;;;;1.20;1.10;;;;;;;16.17;54.01;97697.34;5044119;27;20283;-75
2022/07/07 03:52:54;;;;;;;2.50;1.27;;;;;;;16.19;53.84;97697.84;5046806;27;20237;-75
2022/07/07 03:55:20;;;;;;;1.42;1.30;;;;;;;16.09;54.58;97696.84;5046784;27;20665;-75
2022/07/07 03:57:46;;;;;;;2.08;1.23;;;;;;;16.00;54.49;97701.06;5027689;27;20261;-75
2022/07/07 04:00:12;;;;;;;1.55;1.13;;;;;;;16.04;54.41;97702.13;5040329;27;20662;-75
2022/07/07 04:02:38;;;;;;;3.92;1.10;;;;;;;16.10;54.85;97695.00;5044154;27;20156;-75
2022/07/07 04:05:04;;;;;;;2.67;1.20;;;;;;;16.13;54.42;97691.06;5044711;27;20191;-75
2022/07/07 04:07:29;;;;;;;2.05;1.40;;;;;;;16.10;54.90;97685.28;5021731;27;20833;-75
2022/07/07 04:09:55;;;;;;;3.90;1.40;;;;;;;16.10;55.02;97697.63;5046010;27;20271;-75
2022/07/07 04:12:20;;;;;;;1.88;1.00;;;;;;;16.18;54.92;97691.06;5046362;27;20219;-75
2022/07/07 04:14:46;;;;;;;2.55;1.10;;;;;;;16.21;55.21;97701.81;5035950;27;20888;-75
2022/07/07 04:17:11;;;;;;;2.33;1.20;;;;;;;16.23;55.21;97704.16;5035560;27;20633;-75
2022/07/07 04:19:39;;;;;;;1.73;1.25;;;;;;;16.33;55.33;97695.44;5035490;27;20278;-75
2022/07/07 04:22:05;;;;;;;3.00;1.58;;;;;;;16.43;55.14;97701.47;5019786;28;20226;-75
2022/07/07 04:24:30;;;;;;;2.55;1.45;;;;;;;16.52;55.08;97693.81;5044181;27;20192;-75
2022/07/07 04:26:55;;;;;;;3.05;1.20;;;;;;;16.69;53.99;97690.84;5044444;27;20194;-75
2022/07/07 04:29:21;;;;;;;1.98;1.60;;;;;;;16.76;53.88;97687.88;5007965;28;20164;-75
2022/07/07 04:31:46;;;;;;;2.55;1.30;;;;;;;16.89;53.82;97689.94;5044237;27;20228;-75
2022/07/07 04:34:13;;;;;;;2.35;1.73;;;;;;;16.95;52.83;97673.09;5042506;27;20203;-75
2022/07/07 04:36:39;;;;;;;3.00;1.48;;;;;;;17.10;52.71;97669.56;5014187;27;20180;-75
2022/07/07 04:39:05;;;;;;;3.38;2.00;;;;;;;17.25;52.21;97670.50;5026799;28;20195;-75
2022/07/07 04:41:30;;;;;;;2.67;1.52;;;;;;;17.33;52.06;97664.66;5045969;28;20640;-75
2022/07/07 04:43:55;;;;;;;3.42;1.70;;;;;;;17.47;51.83;97672.72;5020466;28;20245;-75
2022/07/07 04:46:21;;;;;;;2.78;1.50;;;;;;;17.51;51.54;97677.16;5001262;28;20320;-75
2022/07/07 04:48:46;;;;;;;3.00;1.50;;;;;;;17.58;51.25;97668.91;5045520;28;20243;-75
2022/07/07 04:51:11;;;;;;;3.92;1.80;;;;;;;17.66;51.35;97681.47;5026409;27;20187;-75
2022/07/07 04:53:37;;;;;;;3.25;1.20;;;;;;;17.78;51.08;97681.88;5007521;28;20205;-75
2022/07/07 04:56:02;;;;;;;2.70;1.45;;;;;;;17.85;51.01;97678.16;5026827;28;20259;-75
2022/07/07 04:58:28;;;;;;;3.15;1.33;;;;;;;17.89;51.14;97682.63;5020501;28;20276;-74
2022/07/07 05:00:53;;;;;;;1.88;1.10;;;;;;;17.98;50.32;97679.38;5043597;28;20203;-75
2022/07/07 05:03:19;;;;;;;2.13;1.20;;;;;;;18.09;50.00;97686.88;5043794;28;20753;-75
2022/07/07 05:05:44;;;;;;;1.92;1.00;;;;;;;18.13;50.03;97680.00;5043935;28;20263;-75
2022/07/07 05:08:09;;;;;;;1.83;1.35;;;;;;;18.16;50.53;97676.00;4998902;28;20361;-75
2022/07/07 05:10:35;;;;;;;4.40;1.30;;;;;;;18.22;50.10;97679.38;5023793;28;20652;-75
2022/07/07 05:13:00;;;;;;;3.13;1.30;;;;;;;18.24;50.24;97685.16;5026909;28;20248;-75
2022/07/07 05:15:26;;;;;;;3.03;1.55;;;;;;;18.28;50.27;97689.59;5035412;28;20156;-75
2022/07/07 05:17:51;;;;;;;1.90;1.30;;;;;;;18.38;50.15;97680.75;5043622;28;20191;-75
2022/07/07 05:20:17;;;;;;;1.65;1.20;;;;;;;18.44;49.73;97686.72;5026972;28;20183;-75
2022/07/07 05:22:42;;;;;;;2.08;1.25;;;;;;;18.41;50.28;97684.69;5042516;28;20325;-75
2022/07/07 05:25:08;;;;;;;3.47;1.50;;;;;;;18.47;50.28;97691.44;5045150;27;20222;-74
2022/07/07 05:27:33;;;;;;;1.20;1.10;;;;;;;18.42;50.77;97686.25;5026570;28;20190;-75
2022/07/07 05:29:58;;;;;;;2.38;1.58;;;;;;;18.42;50.50;97688.88;5026158;28;20116;-75
2022/07/07 05:32:24;;;;;;;2.92;1.50;;;;;;;18.55;50.26;97682.91;5043513;28;20277;-75
2022/07/07 05:34:49;;;;;;;2.78;1.70;;;;;;;18.57;50.46;97683.41;5026058;28;20643;-75
2022/07/07 05:37:15;;;;;;;2.85;1.70;;;;;;;18.61;50.34;97678.34;5033138;28;20209;-75
2022/07/07 05:39:40;;;;;;;2.05;1.40;;;;;;;18.70;50.38;97666.88;5009737;28;20072;-75
2022/07/07 05:42:05;;;;;;;2.05;1.40;;;;;;;18.76;50.02;97670.22;5043496;28;20176;-75
2022/07/07 05:44:31;;;;;;;2.75;1.67;;;;;;;18.86;49.87;97672.75;5017014;27;20193;-75
2022/07/07 05:46:56;;;;;;;2.92;1.50;;;;;;;18.85;49.65;97667.75;5047671;27;20187;-75
2022/07/07 05:49:22;;;;;;;2.45;1.60;;;;;;;18.98;49.50;97661.00;5006734;27;20161;-75
2022/07/07 05:51:47;;;;;;;3.20;1.80;;;;;;;19.07;49.59;97670.63;5047554;27;20191;-75
2022/07/07 05:54:12;;;;;;;2.70;1.60;;;;;;;19.15;49.61;97671.03;5011151;28;20202;-75
2022/07/07 05:56:38;;;;;;;4.13;1.77;;;;;;;19.21;49.25;97685.72;5047839;27;20579;-75
2022/07/07 05:59:03;;;;;;;2.67;1.77;;;;;;;19.21;49.50;97691.78;5008078;27;20287;-75
2022/07/07 06:01:28;;;;;;;3.95;1.60;;;;;;;19.28;49.72;97686.94;5048845;27;20729;-75
2022/07/07 06:03:54;;;;;;;3.80;2.05;;;;;;;19.26;49.73;97697.00;5027773;27;20637;-75
2022/07/07 06:06:19;;;;;;;3.85;2.10;;;;;;;19.38;49.28;97695.75;5046927;27;20292;-75
2022/07/07 06:08:44;;;;;;;2.47;1.65;;;;;;;19.46;49.24;97685.31;5029740;27;20164;-75
2022/07/07 06:11:10;;;;;;;3.60;1.60;;;;;;;19.44;49.02;97684.81;5029824;27;20183;-75
2022/07/07 06:13:35;;;;;;;3.70;1.85;;;;;;;19.36;49.55;97692.63;5048396;27;20183;-75
2022/07/07 06:16:00;;;;;;;5.07;1.75;;;;;;;19.34;49.64;97690.25;5040952;27;20198;-75
2022/07/07 06:18:26;;;;;;;2.45;2.03;;;;;;;19.26;50.02;97686.44;5048370;27;20297;-75
2022/07/07 06:20:51;;;;;;;2.50;1.90;;;;;;;19.18;50.71;97688.94;5046577;27;20625;-75
2022/07/07 06:23:16;;;;;;;3.35;2.00;;;;;;;19.20;50.75;97686.78;5046394;27;20160;-74
2022/07/07 06:25:43;;;;;;;2.15;1.70;;;;;;;19.09;51.20;97689.59;5029639;27;20604;-75
2022/07/07 06:28:08;;;;;;;2.97;1.88;;;;;;;19.22;50.52;97688.06;5038532;27;20395;-75
2022/07/07 06:30:33;;;;;;;2.35;1.73;;;;;;;19.24;51.36;97693.88;5027661;27;20348;-75
2022/07/07 06:32:59;;;;;;;3.17;2.20;;;;;;;19.27;51.02;97689.84;5006536;27;20306;-75
2022/07/07 06:35:26;;;;;;;5.80;2.05;;;;;;;19.28;50.71;97694.06;5040802;27;20274;-75
2022/07/07 06:37:52;;;;;;;3.47;2.25;;;;;;;19.32;50.91;97696.91;5029303;27;20657;-74
2022/07/07 06:40:18;;;;;;;3.45;1.80;;;;;;;19.33;52.00;97693.19;5044231;27;20203;-75
2022/07/07 06:42:43;;;;;;;2.88;2.00;;;;;;;19.28;51.33;97692.19;5045343;27;20628;-75
2022/07/07 06:45:09;;;;;;;2.20;1.67;;;;;;;19.32;51.55;97692.41;5033437;27;20261;-75
2022/07/07 06:47:34;;;;;;;3.85;1.70;;;;;;;19.28;51.36;97686.94;5039019;27;20307;-75
2022/07/07 06:50:00;;;;;;;2.97;1.52;;;;;;;19.35;51.27;97688.44;5028165;27;20179;-75
2022/07/07 06:52:25;;;;;;;3.60;1.88;;;;;;;19.28;51.26;97681.66;5045585;27;20131;-75
2022/07/07 06:54:50;;;;;;;2.20;1.98;;;;;;;19.34;51.37;97689.47;5028551;27;20335;-75
2022/07/07 06:57:16;;;;;;;3.35;1.73;;;;;;;19.36;51.15;97692.63;5044796;27;20636;-75
2022/07/07 06:59:41;;;;;;;4.05;2.15;;;;;;;19.40;51.52;97693.63;5027951;27;20206;-75
2022/07/07 07:02:07;;;;;;;3.63;1.73;;;;;;;19.41;51.99;97695.19;5045034;27;20408;-75
2022/07/07 07:04:32;;;;;;;3.63;1.65;;;;;;;19.43;52.02;97691.19;5011649;27;20253;-75
2022/07/07 07:06:58;;;;;;;3.97;1.52;;;;;;;19.45;51.81;97696.19;5045503;27;20702;-75
2022/07/07 07:09:23;;;;;;;2.60;1.63;;;;;;;19.47;51.83;97699.31;5046919;27;20202;-75
2022/07/07 07:11:50;;;;;;;3.88;1.90;;;;;;;19.53;52.06;97708.69;5045398;27;20488;-75
2022/07/07 07:14:15;;;;;;;2.30;1.88;;;;;;;19.53;52.01;97718.50;5045091;27;20778;-75
2022/07/07 07:16:41;;;;;;;3.53;2.00;;;;;;;19.56;51.91;97723.97;5006335;27;20251;-75
2022/07/07 07:19:06;;;;;;;2.78;1.60;;;;;;;19.64;51.55;97710.13;5011143;27;20182;-75
2022/07/07 07:21:32;;;;;;;4.18;1.80;;;;;;;19.72;52.17;97715.81;5028144;27;20617;-75
2022/07/07 07:23:58;;;;;;;2.92;2.00;;;;;;;19.77;52.24;97707.81;5011168;27;20289;-75
2022/07/07 07:26:23;;;;;;;4.90;2.00;;;;;;;19.83;51.94;97709.31;5042653;27;20184;-75
2022/07/07 07:28:49;;;;;;;3.42;2.00;;;;;;;19.85;52.25;97711.66;5039036;27;20319;-75
2022/07/07 07:31:14;;;;;;;2.88;1.80;;;;;;;19.85;51.98;97704.50;5028216;27;20278;-75
2022/07/07 07:33:40;;;;;;;3.10;1.80;;;;;;;19.91;51.92;97703.34;5044852;27;20674;-75
2022/07/07 07:36:08;;;;;;;4.35;1.90;;;;;;;20.00;51.93;97706.88;5045005;27;20377;-75
2022/07/07 07:38:35;;;;;;;3.63;2.20;;;;;;;19.99;51.74;97710.59;5042942;27;20212;-75
2022/07/07 07:41:02;;;;;;;3.63;2.00;;;;;;;20.02;51.80;97712.66;5027192;27;20597;-75
2022/07/07 07:43:27;;;;;;;3.97;1.95;;;;;;;20.10;52.26;97716.50;5043756;27;20273;-75
2022/07/07 07:45:53;;;;;;;3.63;2.20;;;;;;;20.15;52.19;97721.69;5040429;27;20374;-75
2022/07/07 07:48:18;;;;;;;4.40;2.22;;;;;;;20.18;51.77;97712.38;5043644;27;20187;-75
2022/07/07 07:50:44;;;;;;;3.13;2.25;;;;;;;20.25;53.14;97711.97;5027896;27;20165;-76
2022/07/07 07:53:09;;;;;;;2.67;1.98;;;;;;;20.25;52.94;97718.03;5027509;27;20655;-75
2022/07/07 07:55:35;;;;;;;3.88;2.40;;;;;;;20.40;52.08;97711.69;5026980;27;20176;-75
2022/07/07 07:58:01;;;;;;;3.50;2.17;;;;;;;20.52;52.30;97724.41;5044436;27;20642;-75
2022/07/07 08:00:26;;;;;;;2.72;1.80;;;;;;;20.61;51.71;97722.63;5026963;27;20231;-75
2022/07/07 08:02:54;;;;;;;3.38;1.98;;;;;;;20.67;51.56;97721.47;5027909;27;20257;-75
2022/07/07 08:05:20;;;;;;;2.90;2.22;;;;;;;20.72;51.77;97720.59;5027470;27;20160;-75
2022/07/07 08:07:45;;;;;;;3.03;2.33;;;;;;;20.78;51.82;97729.97;5044346;27;20206;-75
2022/07/07 08:10:12;;;;;;;3.05;2.30;;;;;;;20.79;52.22;97731.56;5043263;27;20633;-75
2022/07/07 08:12:38;;;;;;;6.00;2.33;;;;;;;20.89;51.21;97731.34;5044183;27;20194;-75
2022/07/07 08:15:04;;;;;;;5.05;2.88;;;;;;;20.84;51.79;97726.16;5021358;27;20290;-75
2022/07/07 08:17:30;;;;;;;3.92;2.63;;;;;;;20.91;52.04;97718.59;5010714;28;20277;-76
2022/07/07 08:19:55;;;;;;;3.92;2.35;;;;;;;21.00;51.23;97718.66;5046008;27;20686;-75
2022/07/07 08:22:21;;;;;;;3.92;2.10;;;;;;;20.98;51.45;97718.19;5044167;27;20191;-75
2022/07/07 08:24:46;;;;;;;4.18;2.55;;;;;;;20.97;51.23;97716.59;5043958;27;20239;-75
2022/07/07 08:27:11;;;;;;;3.65;2.58;;;;;;;20.95;52.36;97719.53;5027317;27;20641;-75
2022/07/07 08:29:38;;;;;;;3.05;2.63;;;;;;;20.95;52.01;97708.19;5027100;27;20646;-75
2022/07/07 08:32:11;;;;;;;3.60;2.13;;;;;;;20.88;53.07;97713.09;5031409;27;20214;-75
2022/07/07 08:34:37;;;;;;;5.95;2.88;;;;;;;21.00;51.79;97691.41;5027352;28;20263;-75
2022/07/07 08:37:03;;;;;;;3.92;2.35;;;;;;;21.00;51.51;97692.19;5027627;28;20247;-75
2022/07/07 08:39:28;;;;;;;4.43;2.72;;;;;;;21.04;52.39;97695.81;5043759;28;20271;-76
2022/07/07 08:41:54;;;;;;;3.15;2.30;;;;;;;21.05;52.24;97692.06;5027427;28;20590;-75
2022/07/07 08:44:20;;;;;;;4.38;2.88;;;;;;;21.04;52.62;97689.72;5002548;27;20634;-75
2022/07/07 08:46:45;;;;;;;4.68;2.50;;;;;;;21.17;51.87;97693.41;5026590;28;20264;-75
2022/07/07 08:49:10;;;;;;;2.95;2.58;;;;;;;20.97;52.96;97695.41;5043792;28;20178;-76
2022/07/07 08:51:41;;;;;;;3.17;2.65;;;;;;;21.17;52.12;97702.13;5027096;28;20185;-75
2022/07/07 08:54:07;;;;;;;3.80;2.85;;;;;;;21.26;53.60;97702.19;5041269;28;20281;-75
2022/07/07 08:56:33;;;;;;;5.47;3.17;;;;;;;21.40;51.74;97708.19;5044283;28;20264;-75
2022/07/07 08:58:58;;;;;;;4.68;2.33;;;;;;;21.50;51.22;97704.56;5026892;28;20275;-75
2022/07/07 09:01:23;;;;;;;4.05;3.17;;;;;;;21.63;52.38;97713.53;5035724;28;20590;-75
2022/07/07 09:03:49;;;;;;;5.60;3.17;;;;;;;21.72;52.22;97703.75;5043873;28;20638;-76
2022/07/07 09:06:15;;;;;;;4.88;2.55;;;;;;;21.78;51.17;97702.53;5043917;28;20634;-75
2022/07/07 09:08:40;;;;;;;4.15;2.60;;;;;;;21.89;51.05;97703.81;5027260;28;20205;-75
2022/07/07 09:11:10;;;;;;;3.15;2.58;;;;;;;21.78;51.23;97702.53;5043911;28;20705;-75
2022/07/07 09:13:36;;;;;;;3.35;2.80;;;;;;;22.01;50.42;97700.59;5025195;28;20270;-75
2022/07/07 09:16:13;;;;;;;3.33;2.35;;;;;;;22.03;51.21;97695.78;5031913;28;20157;-75
2022/07/07 09:18:41;;;;;;;3.53;2.88;;;;;;;22.14;50.42;97693.66;4987555;28;20282;-75
2022/07/07 09:21:28;;;;;;;5.25;2.42;;;;;;;21.92;51.68;97693.69;5024964;27;20287;-76
2022/07/07 09:23:58;;;;;;;4.72;2.70;;;;;;;22.48;49.72;97705.44;4978380;27;20234;-75
2022/07/07 09:26:41;;;;;;;3.08;2.47;;;;;;;22.47;49.55;97703.91;5048027;27;20291;-75
2022/07/07 09:29:13;;;;;;;3.90;3.13;;;;;;;23.01;48.78;97700.97;5047612;27;20257;-75
2022/07/07 09:31:58;;;;;;;5.15;2.70;;;;;;;23.16;48.75;97697.09;5030505;27;20265;-75
2022/07/07 09:34:35;;;;;;;3.67;2.13;;;;;;;23.46;47.93;97698.03;5031333;27;20194;-76
2022/07/07 09:40:05;;;;;;;5.75;2.55;;;;;;;23.39;47.32;97703.03;5032593;27;20264;-76
2022/07/07 09:42:32;;;;;;;7.55;2.72;;;;;;;23.65;47.12;97702.97;5030862;27;20199;-76
2022/07/07 09:45:03;;;;;;;2.88;2.30;;;;;;;23.44;47.87;97710.84;5041815;27;20209;-76
2022/07/07 09:47:29;;;;;;;3.67;2.75;;;;;;;23.48;47.27;97713.66;5047644;27;20186;-75
2022/07/07 09:50:13;;;;;;;5.25;2.85;;;;;;;23.26;48.38;97723.34;5013148;27;20205;-76
2022/07/07 09:52:40;;;;;;;2.70;2.47;;;;;;;23.48;47.49;97711.00;5035369;27;20256;-75
2022/07/07 09:55:11;;;;;;;3.67;2.50;;;;;;;23.60;47.51;97718.31;5047402;27;20237;-76
2022/07/07 09:57:37;;;;;;;4.40;2.65;;;;;;;23.68;47.85;97710.31;5013437;27;20374;-75
2022/07/07 10:00:04;;;;;;;2.55;2.08;;;;;;;23.72;47.20;97700.59;5029784;27;20137;-75
2022/07/07 10:02:30;;;;;;;5.35;2.30;;;;;;;23.78;47.34;97714.50;5030357;27;20183;-76
2022/07/07 10:04:57;;;;;;;2.63;2.05;;;;;;;23.66;47.75;97717.03;5047066;27;20661;-76
2022/07/07 10:07:25;;;;;;;4.28;2.10;;;;;;;23.68;47.56;97725.47;5047439;27;20160;-76
2022/07/07 10:09:53;;;;;;;2.60;2.17;;;;;;;23.56;48.13;97726.13;5020114;27;20193;-76
2022/07/07 10:12:25;;;;;;;3.08;1.88;;;;;;;23.38;48.15;97739.44;5028989;27;20598;-76
2022/07/07 10:14:54;;;;;;;2.53;2.28;;;;;;;23.41;47.78;97732.72;5044340;27;20237;-76
2022/07/07 10:17:21;;;;;;;3.53;2.03;;;;;;;23.36;48.46;97738.97;5040384;27;20236;-76
2022/07/07 10:19:47;;;;;;;2.80;2.10;;;;;;;23.15;48.95;97738.03;5029524;27;20179;-76
2022/07/07 10:22:13;;;;;;;2.72;2.00;;;;;;;23.12;48.21;97736.03;5040292;27;20496;-75
2022/07/07 10:24:40;;;;;;;2.67;1.88;;;;;;;23.23;48.42;97747.13;5029546;27;20235;-76
2022/07/07 10:27:07;;;;;;;3.05;2.10;;;;;;;23.23;48.46;97741.81;5027442;27;20295;-75
2022/07/07 10:29:44;;;;;;;2.20;2.00;;;;;;;22.99;48.25;97740.34;5041154;27;20183;-76
2022/07/07 10:32:15;;;;;;;3.08;1.80;;;;;;;23.02;48.05;97741.63;5028767;28;20195;-75
2022/07/07 10:34:48;;;;;;;3.85;2.10;;;;;;;23.03;48.28;97746.63;5029413;27;20195;-75
2022/07/07 10:37:13;;;;;;;2.50;2.30;;;;;;;23.15;48.91;97749.47;5042417;27;20667;-76
2022/07/07 10:39:45;;;;;;;4.15;2.08;;;;;;;23.11;48.13;97745.84;5048180;27;20277;-76
2022/07/07 10:42:17;;;;;;;2.25;1.63;;;;;;;22.98;47.64;97747.56;5029290;27;20194;-75
2022/07/07 10:44:48;;;;;;;2.45;1.80;;;;;;;23.00;48.25;97742.69;5044330;27;20271;-76
2022/07/07 10:47:17;;;;;;;2.95;2.05;;;;;;;22.97;49.05;97756.59;5029547;27;20647;-76
2022/07/07 10:49:45;;;;;;;4.05;2.00;;;;;;;22.96;49.12;97760.38;5047205;27;20199;-76
2022/07/07 10:52:12;;;;;;;3.47;1.88;;;;;;;22.91;50.11;97768.47;5029187;27;20264;-76
2022/07/07 10:54:49;;;;;;;3.25;1.70;;;;;;;22.71;50.52;97766.41;5011825;27;20681;-75
2022/07/07 10:57:17;;;;;;;2.17;1.75;;;;;;;22.74;51.31;97757.81;5028698;27;20199;-76
2022/07/07 10:59:59;;;;;;;2.17;1.70;;;;;;;22.57;51.27;97771.84;5028742;27;20299;-76
2022/07/07 11:02:38;;;;;;;2.03;1.83;;;;;;;22.73;51.40;97764.22;5047191;27;20284;-75
2022/07/07 11:05:27;;;;;;;1.80;1.60;;;;;;;22.81;49.39;97768.78;5022145;27;20199;-75
2022/07/07 11:07:55;;;;;;;2.53;1.90;;;;;;;23.13;48.83;97770.25;5028728;27;20277;-76
2022/07/07 11:10:21;;;;;;;2.70;1.35;;;;;;;23.30;48.14;97769.44;5041309;27;20335;-76
2022/07/07 11:12:50;;;;;;;1.58;1.40;;;;;;;23.35;47.76;97776.50;5045467;27;20203;-76
2022/07/07 11:15:20;;;;;;;2.00;1.40;;;;;;;23.25;47.92;97776.81;5040066;27;20281;-75
2022/07/07 11:17:47;;;;;;;1.80;1.50;;;;;;;23.23;48.13;97771.81;5045356;27;20195;-75
2022/07/07 11:20:18;;;;;;;2.45;1.30;;;;;;;23.18;48.03;97771.97;5044910;27;20344;-76
2022/07/07 11:22:47;;;;;;;3.10;1.80;;;;;;;23.12;48.31;97781.19;5011363;27;20703;-75
2022/07/07 11:25:14;;;;;;;1.80;1.50;;;;;;;22.79;49.52;97785.00;5043913;27;20576;-75
2022/07/07 11:27:40;;;;;;;2.40;1.65;;;;;;;22.80;50.12;97788.44;5011775;27;20244;-75
2022/07/07 11:30:07;;;;;;;1.85;1.40;;;;;;;22.78;50.64;97794.06;5044655;27;20199;-76
2022/07/07 11:32:40;;;;;;;1.65;1.25;;;;;;;22.66;50.35;97795.75;5028217;27;20183;-75
2022/07/07 11:35:08;;;;;;;1.92;1.33;;;;;;;22.72;50.38;97795.31;5011228;27;20640;-75
2022/07/07 11:37:37;;;;;;;1.98;0.90;;;;;;;22.72;50.16;97810.44;5045327;27;20211;-75